Time;durP1;ratioP1;P1;durP2;ratioP2;P2;SDS_P1;SDS_P2;PMS_P1;PMS_P2;Temp;Humidity;BMP_temperature;BMP_pressure;BME280_temperature;BME280_humidity;BME280_pressure;Samples;Min_cycle;Max_cycle;Signal;HPM_P1;HPM_P2
2024/03/16 00:09:40;;;;;;;54.50;26.40;;;;;;;7.01;93.98;99888.20;677177;1264;141678;-80
2024/03/16 00:24:44;;;;;;;53.80;25.50;;;;;;;7.07;94.77;99880.09;677059;1260;139096;-80
2024/03/16 00:39:47;;;;;;;55.60;25.40;;;;;;;7.08;95.22;99871.52;675970;1263;139353;-81
2024/03/16 00:54:50;;;;;;;55.80;24.50;;;;;;;7.04;95.56;99864.64;676525;1263;139387;-82
2024/03/16 01:09:55;;;;;;;70.10;30.80;;;;;;;7.04;96.35;99849.35;677316;1261;139484;-80
2024/03/16 01:24:58;;;;;;;63.40;26.70;;;;;;;7.16;96.69;99830.34;677360;1268;139260;-80
2024/03/16 01:40:02;;;;;;;58.40;27.80;;;;;;;7.32;98.00;99819.30;674214;1264;138983;-81
2024/03/16 01:55:05;;;;;;;59.10;29.20;;;;;;;7.50;99.00;99811.77;675805;1262;138951;-79
2024/03/16 02:10:08;;;;;;;60.10;26.80;;;;;;;7.62;99.57;99814.04;675810;1260;139294;-79
2024/03/16 02:25:13;;;;;;;62.20;28.90;;;;;;;7.66;99.23;99813.05;675566;1263;138938;-80
2024/03/16 02:40:17;;;;;;;59.20;28.00;;;;;;;7.70;99.90;99811.80;676401;1263;138796;-80
2024/03/16 02:55:21;;;;;;;68.70;30.00;;;;;;;7.76;100.00;99813.92;677897;1273;139079;-80
2024/03/16 03:10:24;;;;;;;57.70;26.90;;;;;;;7.84;100.00;99804.02;678081;1263;139402;-80
2024/03/16 03:25:27;;;;;;;65.30;29.20;;;;;;;7.94;100.00;99809.30;677018;1263;139634;-81
2024/03/16 03:40:30;;;;;;;55.80;25.30;;;;;;;8.03;100.00;99799.45;674592;1262;139700;-80
2024/03/16 03:55:33;;;;;;;54.90;27.10;;;;;;;8.08;100.00;99801.70;676241;1276;140867;-80
2024/03/16 04:10:37;;;;;;;59.80;27.40;;;;;;;8.06;100.00;99797.81;674411;1263;139011;-80
2024/03/16 04:25:40;;;;;;;57.50;27.20;;;;;;;7.95;100.00;99810.45;674313;1263;140616;-80
2024/03/16 04:40:43;;;;;;;59.00;27.80;;;;;;;7.66;100.00;99810.59;678255;1263;139405;-80
2024/03/16 04:55:47;;;;;;;58.20;25.80;;;;;;;7.47;100.00;99820.32;675473;1269;140049;-80
2024/03/16 05:10:53;;;;;;;54.70;24.90;;;;;;;7.42;100.00;99813.73;678803;1263;139794;-80
2024/03/16 05:25:59;;;;;;;64.10;26.90;;;;;;;7.57;100.00;99821.26;676484;1263;140026;-80
2024/03/16 05:41:03;;;;;;;72.00;32.40;;;;;;;7.86;100.00;99828.44;675452;1260;139985;-80
2024/03/16 05:56:06;;;;;;;60.60;29.10;;;;;;;8.18;100.00;99828.14;676446;1273;139977;-80
2024/03/16 06:11:09;;;;;;;67.40;32.10;;;;;;;8.45;100.00;99822.21;675392;1264;138833;-80
2024/03/16 06:26:17;;;;;;;56.30;28.00;;;;;;;8.70;100.00;99811.92;677793;1259;139062;-80
2024/03/16 06:41:20;;;;;;;63.80;30.00;;;;;;;8.86;100.00;99817.83;679108;1264;140390;-80
2024/03/16 06:56:23;;;;;;;60.40;32.10;;;;;;;9.07;100.00;99833.39;676473;1261;139170;-80
2024/03/16 07:11:28;;;;;;;62.20;30.90;;;;;;;9.83;100.00;99847.52;676510;1263;139668;-79
2024/03/16 07:26:31;;;;;;;53.00;28.00;;;;;;;10.59;100.00;99850.31;675614;1264;140587;-79
2024/03/16 07:41:35;;;;;;;51.10;28.30;;;;;;;10.81;100.00;99849.98;678545;1264;139830;-79
2024/03/16 07:56:39;;;;;;;51.60;27.20;;;;;;;10.86;100.00;99874.21;678490;1261;139042;-79
2024/03/16 08:11:43;;;;;;;44.00;24.70;;;;;;;11.23;100.00;99875.71;676379;1263;139949;-79
2024/03/16 08:26:46;;;;;;;47.80;26.60;;;;;;;11.81;100.00;99867.45;681803;1275;139256;-77
2024/03/16 08:41:51;;;;;;;74.00;32.90;;;;;;;12.99;100.00;99862.02;681056;1275;139846;-78
2024/03/16 08:56:55;;;;;;;49.30;22.30;;;;;;;17.15;95.48;99863.38;677290;1260;140214;-78
2024/03/16 09:11:58;;;;;;;30.00;19.90;;;;;;;18.34;87.98;99856.14;678779;1262;139679;-79
2024/03/16 09:27:02;;;;;;;30.80;18.90;;;;;;;18.78;84.13;99850.02;680988;1261;140799;-80
2024/03/16 09:42:06;;;;;;;23.50;15.80;;;;;;;20.24;81.87;99833.30;680630;1262;140432;-79
2024/03/16 09:57:15;;;;;;;21.20;14.50;;;;;;;20.09;77.65;99835.05;677964;1259;177899;-79
2024/03/16 10:12:24;;;;;;;22.50;14.40;;;;;;;19.13;76.86;99836.13;677750;1262;138406;-78
2024/03/16 10:27:28;;;;;;;21.80;14.30;;;;;;;17.18;79.85;99843.08;678460;1262;138912;-79
2024/03/16 10:42:32;;;;;;;24.80;15.00;;;;;;;16.43;83.24;99852.21;677438;1264;140475;-79
2024/03/16 10:57:38;;;;;;;21.60;14.30;;;;;;;16.52;84.38;99850.61;678351;1263;140134;-80
2024/03/16 11:12:45;;;;;;;40.30;26.10;;;;;;;17.19;84.21;99841.06;675902;1259;139923;-80
2024/03/16 11:27:49;;;;;;;22.50;15.70;;;;;;;18.14;83.29;99836.33;679026;1262;139804;-79
2024/03/16 11:42:53;;;;;;;18.30;7.70;;;;;;;18.75;80.00;99837.45;679208;1275;139958;-79
2024/03/16 11:58:03;;;;;;;19.30;12.80;;;;;;;18.04;77.05;99839.39;676995;1262;139016;-78
2024/03/16 12:13:07;;;;;;;10.50;6.30;;;;;;;17.98;77.00;99826.52;677888;1260;139437;-80
2024/03/16 12:28:13;;;;;;;9.10;5.10;;;;;;;18.27;76.24;99818.60;680283;1259;139476;-81
2024/03/16 12:43:19;;;;;;;13.50;5.00;;;;;;;18.43;75.97;99814.47;679408;1260;138912;-80
2024/03/16 12:58:21;;;;;;;10.10;3.60;;;;;;;18.43;74.60;99807.77;679415;1262;140038;-79
2024/03/16 13:13:25;;;;;;;11.20;4.30;;;;;;;18.69;73.58;99801.92;679922;1265;139358;-79
2024/03/16 13:28:33;;;;;;;21.00;12.20;;;;;;;18.74;72.51;99797.33;679881;1263;139629;-81
2024/03/16 13:43:36;;;;;;;15.60;7.60;;;;;;;16.41;75.03;99827.75;681893;1262;140667;-80
2024/03/16 13:58:39;;;;;;;22.10;10.20;;;;;;;14.76;80.17;99811.18;679943;1262;139291;-80
2024/03/16 14:13:42;;;;;;;18.50;6.70;;;;;;;15.30;88.62;99788.52;676493;1263;140013;-80
2024/03/16 14:28:47;;;;;;;18.80;9.60;;;;;;;16.06;90.48;99789.79;679680;1264;141601;-79
2024/03/16 14:43:52;;;;;;;21.30;12.40;;;;;;;16.61;90.09;99793.13;678585;1262;140276;-79
2024/03/16 15:12:40;;;;;;;12.80;6.60;;;;;;;16.43;88.67;99797.23;657138;1300;544998;-80
2024/03/16 15:42:58;;;;;;;21.40;9.30;;;;;;;14.42;94.25;99864.65;673184;1274;139133;-81
2024/03/16 15:58:04;;;;;;;15.60;9.00;;;;;;;14.13;94.15;99843.75;673013;1276;139033;-80
2024/03/16 16:13:11;;;;;;;20.70;10.60;;;;;;;14.01;93.74;99835.61;670560;1276;139127;-80
2024/03/16 16:28:15;;;;;;;25.90;13.20;;;;;;;13.55;95.39;99848.46;674868;1276;139006;-79
2024/03/16 16:43:20;;;;;;;15.70;8.60;;;;;;;13.41;96.39;99854.51;674142;1277;141182;-79
2024/03/16 16:58:24;;;;;;;38.80;14.70;;;;;;;13.30;96.65;99870.90;672376;1276;140481;-80
2024/03/16 17:13:40;;;;;;;12.50;6.90;;;;;;;13.23;98.55;99893.55;672815;1276;139385;-81
2024/03/16 17:29:09;;;;;;;20.00;8.10;;;;;;;13.10;99.82;99890.80;668774;1276;138748;-78
2024/03/16 17:44:14;;;;;;;35.50;13.70;;;;;;;12.89;100.00;99900.17;673721;1276;140156;-81
2024/03/16 17:59:17;;;;;;;11.50;5.30;;;;;;;12.77;100.00;99937.94;676649;1268;139453;-78
2024/03/16 18:14:32;;;;;;;10.40;5.70;;;;;;;12.47;99.90;99975.27;677776;1266;139927;-80
2024/03/16 18:29:49;;;;;;;39.10;22.90;;;;;;;12.10;99.75;99993.00;677633;1266;140553;-81
2024/03/16 18:44:53;;;;;;;61.10;42.00;;;;;;;11.97;99.36;100029.02;676856;1268;139468;-80
2024/03/16 18:59:56;;;;;;;30.80;15.50;;;;;;;11.72;99.66;100042.24;678066;1266;139526;-80
2024/03/16 19:15:01;;;;;;;21.70;11.90;;;;;;;11.30;100.00;100072.98;678689;1266;140179;-80
2024/03/16 19:30:06;;;;;;;16.00;5.90;;;;;;;9.92;96.32;100127.94;676492;1264;140158;-80
2024/03/16 19:45:10;;;;;;;19.30;7.00;;;;;;;8.77;97.41;100165.20;677120;1264;139536;-80
2024/03/16 20:00:19;;;;;;;19.40;8.20;;;;;;;8.47;97.02;100197.85;674215;1276;138571;-79
2024/03/16 20:15:22;;;;;;;19.70;7.60;;;;;;;8.25;96.39;100226.75;677436;1267;139383;-80
2024/03/16 20:30:25;;;;;;;20.90;5.20;;;;;;;8.20;95.65;100234.98;680803;1267;138945;-81
2024/03/16 20:45:29;;;;;;;19.40;6.00;;;;;;;8.03;94.88;100249.35;678460;1267;139317;-80
2024/03/16 21:00:32;;;;;;;18.90;6.10;;;;;;;7.82;94.80;100251.00;679369;1266;139525;-81
2024/03/16 21:15:36;;;;;;;33.80;15.50;;;;;;;7.61;94.86;100254.66;676757;1266;139371;-82
2024/03/16 21:30:40;;;;;;;21.50;8.00;;;;;;;7.15;95.42;100268.52;675324;1266;139050;-80
2024/03/16 21:45:43;;;;;;;24.10;8.10;;;;;;;6.94;95.51;100281.34;671088;1263;139777;-80
2024/03/16 22:00:47;;;;;;;21.20;5.50;;;;;;;8.66;85.82;100294.63;669540;1264;139156;-80
2024/03/16 22:15:51;;;;;;;20.10;4.30;;;;;;;8.56;81.98;100307.80;668030;1266;139074;-79
2024/03/16 22:30:54;;;;;;;18.00;5.60;;;;;;;8.31;81.15;100314.99;667991;1266;140284;-81
2024/03/16 22:45:58;;;;;;;20.00;5.00;;;;;;;8.08;80.86;100321.28;669035;1263;138856;-81
2024/03/16 23:01:03;;;;;;;16.80;5.10;;;;;;;7.95;79.62;100330.48;669789;1266;138906;-82
2024/03/16 23:16:07;;;;;;;15.70;4.80;;;;;;;7.65;78.56;100335.12;667724;1270;139147;-81
2024/03/16 23:31:11;;;;;;;21.70;5.70;;;;;;;7.55;77.76;100345.63;667528;1267;139150;-80
2024/03/16 23:46:14;;;;;;;15.20;4.50;;;;;;;7.44;76.94;100348.29;667300;1267;138649;-81
